createdAt,value
2019-06-07T00:01:23.930Z,7.40
2019-06-07T00:03:54.321Z,7.45
2019-06-07T00:06:25.853Z,7.67
2019-06-07T00:08:56.435Z,9.35
2019-06-07T00:11:26.767Z,8.25
2019-06-07T00:13:57.076Z,8.80
2019-06-07T00:16:27.301Z,8.73
2019-06-07T00:18:57.513Z,7.75
2019-06-07T00:22:13.062Z,6.55
2019-06-07T00:23:59.749Z,7.83
2019-06-07T00:26:29.872Z,8.13
2019-06-07T00:29:00.088Z,8.40
2019-06-07T00:31:30.319Z,8.50
2019-06-07T00:34:00.530Z,8.85
2019-06-07T00:36:31.688Z,8.58
2019-06-07T00:39:03.602Z,7.25
2019-06-07T00:41:34.525Z,6.90
2019-06-07T00:44:05.011Z,7.28
2019-06-07T00:46:35.320Z,6.85
2019-06-07T00:49:05.535Z,6.85
2019-06-07T00:51:49.899Z,6.97
2019-06-07T00:54:07.669Z,6.75
2019-06-07T00:56:37.990Z,7.08
2019-06-07T00:59:11.731Z,7.03
2019-06-07T01:01:40.025Z,8.10
2019-06-07T01:04:10.359Z,7.33
2019-06-07T01:06:40.578Z,8.13
2019-06-07T01:09:10.763Z,8.18
2019-06-07T01:11:40.979Z,7.65
2019-06-07T01:14:11.171Z,8.08
2019-06-07T01:16:56.237Z,7.50
2019-06-07T01:19:13.857Z,8.23
2019-06-07T01:21:44.201Z,8.78
2019-06-07T01:24:15.390Z,9.30
2019-06-07T01:26:45.714Z,9.15
2019-06-07T01:29:17.702Z,8.58
2019-06-07T01:31:47.962Z,9.73
2019-06-07T01:34:18.525Z,9.83
2019-06-07T01:36:49.005Z,9.65
2019-06-07T01:39:24.074Z,10.18
2019-06-07T01:41:53.261Z,9.75
2019-06-07T01:44:26.013Z,8.10
2019-06-07T01:46:55.463Z,8.35
2019-06-07T01:49:29.554Z,6.50
2019-06-07T01:51:59.695Z,7.10
2019-06-07T01:57:01.893Z,8.43
2019-06-07T01:59:32.167Z,8.85
2019-06-07T02:02:02.496Z,11.25
2019-06-07T02:04:33.614Z,11.20
2019-06-07T02:07:04.081Z,10.72
2019-06-07T02:09:34.314Z,9.88
2019-06-07T02:12:23.895Z,9.10
2019-06-07T02:14:36.430Z,10.13
2019-06-07T02:17:06.633Z,10.25
2019-06-07T02:19:36.892Z,9.95
2019-06-07T02:22:29.474Z,10.60
2019-06-07T02:25:34.609Z,10.03
2019-06-07T02:34:16.261Z,8.43
2019-06-07T02:36:46.479Z,8.53
2019-06-07T02:42:48.210Z,8.58
2019-06-07T02:48:50.393Z,8.85
2019-06-07T02:52:09.928Z,7.90
2019-06-07T03:06:06.921Z,6.72
2019-06-07T03:08:39.517Z,6.75
2019-06-07T03:11:15.321Z,8.58
2019-06-07T03:13:48.577Z,7.45
2019-06-07T03:19:48.852Z,8.05
2019-06-07T03:44:37.795Z,7.40
2019-06-07T03:47:05.380Z,7.85
2019-06-07T03:49:42.714Z,7.55
2019-06-07T03:52:13.145Z,6.83
2019-06-07T03:55:18.737Z,8.08
2019-06-07T04:00:47.331Z,7.33
2019-06-07T04:03:33.036Z,7.53
2019-06-07T04:06:09.417Z,8.20
2019-06-07T04:08:42.227Z,8.45
2019-06-07T04:11:51.276Z,8.43
2019-06-07T04:21:40.362Z,7.22
2019-06-07T04:24:08.764Z,6.62
2019-06-07T04:26:43.286Z,6.92
2019-06-07T04:31:43.335Z,7.30
2019-06-07T04:34:13.556Z,9.30
2019-06-07T04:36:58.771Z,7.30
2019-06-07T04:39:18.432Z,8.00
2019-06-07T04:41:50.100Z,6.78
2019-06-07T04:44:21.823Z,6.80
2019-06-07T04:46:56.910Z,6.42
2019-06-07T04:49:27.079Z,6.67
2019-06-07T04:51:57.902Z,6.50
2019-06-07T04:54:30.925Z,6.90
2019-06-07T04:56:59.922Z,7.05
2019-06-07T05:00:04.135Z,7.85
2019-06-07T05:02:02.112Z,7.42
2019-06-07T05:04:33.151Z,8.10
2019-06-07T05:07:07.276Z,6.83
2019-06-07T05:09:39.410Z,6.70
2019-06-07T05:12:09.285Z,7.22
2019-06-07T05:14:42.380Z,6.15
2019-06-07T05:17:11.369Z,5.92
2019-06-07T05:19:44.202Z,6.05
2019-06-07T05:22:14.698Z,6.70
2019-06-07T05:24:44.916Z,6.53
2019-06-07T05:27:15.112Z,7.92
2019-06-07T05:30:08.793Z,7.37
2019-06-07T05:32:19.711Z,7.78
2019-06-07T05:34:49.853Z,6.97
2019-06-07T05:37:20.151Z,7.35
2019-06-07T05:39:50.515Z,7.83
2019-06-07T05:42:20.891Z,7.72
2019-06-07T05:44:51.081Z,8.03
2019-06-07T05:47:21.370Z,8.85
2019-06-07T05:49:51.575Z,8.50
2019-06-07T05:52:21.856Z,8.53
2019-06-07T05:54:52.037Z,7.75
2019-06-07T05:57:22.388Z,7.60
2019-06-07T05:59:52.714Z,7.60
2019-06-07T06:02:24.857Z,7.42
2019-06-07T06:04:55.064Z,7.30
2019-06-07T06:07:25.659Z,7.20
2019-06-07T06:09:57.400Z,7.87
2019-06-07T06:12:35.531Z,7.03
2019-06-07T06:14:59.610Z,8.55
2019-06-07T06:17:30.300Z,8.35
2019-06-07T06:20:00.810Z,7.67
2019-06-07T06:22:31.418Z,8.55
2019-06-07T06:25:30.982Z,8.18
2019-06-07T06:32:44.031Z,8.55
2019-06-07T06:35:08.997Z,9.25
2019-06-07T06:37:42.578Z,9.25
2019-06-07T06:40:26.462Z,10.32
2019-06-07T06:42:56.851Z,10.70
2019-06-07T06:45:27.270Z,11.38
2019-06-07T06:47:57.631Z,10.88
2019-06-07T06:50:28.025Z,10.93
2019-06-07T06:52:58.405Z,9.50
2019-06-07T06:55:28.733Z,10.32
2019-06-07T06:58:00.083Z,9.58
2019-06-07T07:00:56.981Z,9.70
2019-06-07T07:03:54.154Z,9.03
2019-06-07T07:08:24.189Z,7.33
2019-06-07T07:10:55.071Z,5.85
2019-06-07T07:13:25.839Z,6.87
2019-06-07T07:15:58.448Z,6.80
2019-06-07T07:18:31.012Z,6.90
2019-06-07T07:21:01.301Z,7.25
2019-06-07T07:23:33.053Z,12.45
2019-06-07T07:26:03.273Z,6.65
2019-06-07T07:28:33.570Z,6.22
2019-06-07T07:31:03.836Z,6.22
2019-06-07T07:34:20.649Z,6.08
2019-06-07T07:36:28.153Z,5.75
2019-06-07T07:38:39.099Z,5.62
2019-06-07T07:41:15.443Z,7.90
2019-06-07T07:43:49.233Z,7.08
2019-06-07T07:46:30.532Z,5.65
2019-06-07T07:48:48.529Z,5.62
2019-06-07T07:51:18.980Z,6.12
2019-06-07T07:54:01.448Z,6.35
2019-06-07T07:56:22.023Z,5.15
2019-06-07T07:58:57.928Z,5.72
2019-06-07T08:01:24.090Z,5.95
2019-06-07T08:03:56.123Z,5.97
2019-06-07T08:06:26.283Z,5.22
2019-06-07T08:08:57.146Z,4.65
2019-06-07T08:11:27.540Z,5.17
2019-06-07T15:45:54.293Z,3.77
2019-06-07T15:48:25.013Z,6.10
2019-06-07T15:50:55.222Z,4.95
2019-06-07T15:53:25.567Z,3.60
2019-06-07T15:55:56.880Z,3.75
2019-06-07T15:58:27.146Z,3.75
2019-06-07T16:00:57.433Z,6.45
2019-06-07T16:03:27.610Z,6.28
2019-06-07T16:05:58.003Z,3.25
2019-06-07T16:08:28.290Z,3.62
2019-06-07T16:10:58.521Z,3.08
2019-06-07T16:13:28.769Z,4.03
2019-06-07T16:15:58.987Z,3.85
2019-06-07T16:18:29.185Z,3.60
2019-06-07T16:20:59.579Z,3.90
2019-06-07T16:23:29.764Z,4.22
2019-06-07T16:26:01.097Z,4.87
2019-06-07T16:28:31.600Z,3.83
2019-06-07T16:31:02.013Z,4.30
2019-06-07T16:33:32.309Z,5.03
2019-06-07T16:36:02.680Z,5.60
2019-06-07T16:38:32.983Z,3.45
2019-06-07T16:45:26.640Z,12.60
2019-06-07T16:47:56.882Z,51.42
2019-06-07T16:50:29.153Z,4.17
2019-06-07T16:52:59.361Z,3.55
2019-06-07T16:55:29.630Z,3.65
2019-06-07T16:57:59.946Z,3.33
2019-06-07T17:00:30.225Z,3.22
2019-06-07T17:03:00.495Z,3.87
2019-06-07T17:05:30.688Z,3.25
2019-06-07T17:08:00.898Z,3.67
2019-06-07T17:10:32.412Z,3.20
2019-06-07T17:13:02.611Z,3.62
2019-06-07T17:15:32.966Z,3.52
2019-06-07T17:18:04.370Z,3.33
2019-06-07T17:20:34.654Z,3.05
2019-06-07T17:23:08.559Z,4.85
2019-06-07T17:25:39.464Z,6.60
2019-06-07T17:28:10.822Z,3.87
2019-06-07T17:30:41.775Z,4.12
2019-06-07T17:33:12.234Z,4.72
2019-06-07T17:35:44.642Z,5.72
2019-06-07T17:38:16.145Z,4.83
2019-06-07T17:40:47.111Z,5.33
2019-06-07T17:43:17.625Z,5.57
2019-06-07T17:45:49.422Z,5.37
2019-06-07T17:48:19.726Z,5.75
2019-06-07T17:50:50.219Z,6.53
2019-06-07T17:53:20.499Z,5.33
2019-06-07T17:55:54.324Z,4.90
2019-06-07T17:58:24.596Z,5.17
2019-06-07T18:00:55.015Z,5.17
2019-06-07T18:03:25.787Z,5.00
2019-06-07T18:33:03.477Z,6.28
2019-06-07T18:35:33.780Z,7.45
2019-06-07T18:38:04.184Z,6.15
2019-06-07T18:40:34.336Z,6.30
2019-06-07T18:43:04.927Z,6.40
2019-06-07T18:45:35.184Z,5.28
2019-06-07T18:48:05.995Z,6.78
2019-06-07T18:50:36.611Z,6.95
2019-06-07T18:53:07.287Z,7.20
2019-06-07T18:55:38.048Z,10.03
2019-06-07T18:58:10.913Z,10.40
2019-06-07T19:03:12.768Z,189.47
2019-06-07T19:08:13.662Z,164.13
2019-06-07T19:10:44.635Z,129.72
2019-06-07T19:13:15.925Z,48.78
2019-06-07T19:15:46.794Z,27.07
2019-06-07T19:18:18.732Z,22.40
2019-06-07T19:20:50.765Z,20.10
2019-06-07T19:23:22.325Z,10.55
2019-06-07T19:25:54.270Z,6.90
2019-06-07T19:30:57.160Z,5.50
2019-06-07T19:33:29.214Z,6.28
2019-06-07T19:36:02.058Z,5.80
2019-06-07T19:38:33.588Z,8.05
2019-06-07T19:41:18.931Z,9.50
2019-06-07T19:43:38.416Z,11.57
2019-06-07T19:46:11.207Z,11.05
2019-06-07T19:48:42.867Z,8.75
2019-06-07T19:51:20.430Z,9.08
2019-06-07T19:53:52.861Z,8.08
2019-06-07T19:56:27.080Z,8.33
2019-06-07T19:58:59.639Z,8.80
2019-06-07T20:01:31.796Z,8.55
2019-06-07T20:04:17.422Z,9.75
2019-06-07T20:09:48.231Z,11.93
2019-06-07T20:12:20.264Z,6.58
2019-06-07T20:14:53.891Z,8.18
2019-06-07T20:17:25.536Z,5.95
2019-06-07T20:19:58.275Z,7.65
2019-06-07T20:22:29.848Z,10.90
2019-06-07T20:25:03.080Z,9.35
2019-06-07T20:27:34.689Z,9.10
2019-06-07T20:30:12.146Z,9.05
2019-06-07T20:32:44.047Z,8.00
2019-06-07T20:35:16.395Z,6.87
2019-06-07T20:37:48.407Z,7.78
2019-06-07T20:40:24.627Z,8.05
2019-06-07T20:42:52.486Z,8.15
2019-06-07T20:45:33.088Z,5.95
2019-06-07T20:47:54.632Z,5.70
2019-06-07T20:50:25.004Z,5.62
2019-06-07T20:52:55.202Z,5.85
2019-06-07T20:55:25.501Z,6.35
2019-06-07T20:57:56.100Z,6.33
2019-06-07T21:00:26.568Z,6.60
2019-06-07T21:02:58.990Z,6.28
2019-06-07T21:05:30.467Z,6.20
2019-06-07T21:08:03.779Z,6.72
2019-06-07T21:10:38.093Z,5.05
2019-06-07T21:13:10.236Z,5.58
2019-06-07T21:15:48.778Z,5.58
2019-06-07T21:18:19.374Z,5.05
2019-06-07T21:20:44.976Z,5.35
2019-06-07T21:23:15.310Z,5.22
2019-06-07T21:25:45.540Z,5.35
2019-06-07T21:28:15.915Z,5.03
2019-06-07T21:30:46.146Z,5.58
2019-06-07T21:33:16.678Z,5.20
2019-06-07T21:35:46.969Z,4.70
2019-06-07T21:38:17.248Z,5.05
2019-06-07T21:40:47.511Z,5.05
2019-06-07T21:43:17.732Z,4.80
2019-06-07T21:46:01.558Z,4.80
2019-06-07T21:48:19.920Z,5.10
2019-06-07T21:50:50.260Z,5.47
2019-06-07T21:53:20.711Z,5.85
2019-06-07T21:55:50.930Z,5.72
2019-06-07T21:58:21.756Z,5.65
2019-06-07T22:00:54.927Z,5.78
2019-06-07T22:03:27.137Z,5.60
2019-06-07T22:05:57.346Z,6.60
2019-06-07T22:08:27.596Z,5.33
2019-06-07T22:10:58.088Z,5.70
2019-06-07T22:13:28.304Z,5.22
2019-06-07T22:15:58.547Z,5.62
2019-06-07T22:18:28.750Z,5.47
2019-06-07T22:20:59.012Z,5.70
2019-06-07T22:23:30.279Z,5.55
2019-06-07T22:26:00.736Z,6.78
2019-06-07T22:28:32.898Z,5.67
2019-06-07T22:31:03.040Z,5.42
2019-06-07T22:33:33.254Z,5.92
2019-06-07T22:36:03.441Z,5.20
2019-06-07T22:38:33.781Z,4.70
2019-06-07T22:41:03.973Z,5.22
2019-06-07T22:43:34.235Z,5.65
2019-06-07T22:46:04.634Z,6.20
2019-06-07T22:48:35.085Z,6.05
2019-06-07T22:51:08.835Z,5.83
2019-06-07T22:53:43.874Z,5.35
2019-06-07T22:56:16.082Z,6.35
2019-06-07T22:58:47.416Z,5.72
2019-06-07T23:01:20.292Z,5.58
2019-06-07T23:03:50.636Z,5.90
2019-06-07T23:06:20.912Z,5.65
2019-06-07T23:08:51.209Z,6.22
2019-06-07T23:11:21.422Z,5.72
2019-06-07T23:13:51.640Z,5.90
2019-06-07T23:16:21.931Z,5.97
2019-06-07T23:18:52.245Z,5.45
2019-06-07T23:21:22.469Z,5.72
2019-06-07T23:23:52.719Z,6.35
2019-06-07T23:26:22.939Z,5.35
2019-06-07T23:28:54.421Z,5.00
2019-06-07T23:31:24.626Z,5.58
2019-06-07T23:33:57.848Z,5.37
2019-06-07T23:36:28.040Z,6.00
2019-06-07T23:38:58.299Z,5.53
2019-06-07T23:41:33.264Z,5.83
2019-06-07T23:44:03.435Z,5.55
2019-06-07T23:46:33.625Z,5.70
2019-06-07T23:49:03.812Z,5.95
2019-06-07T23:51:36.129Z,5.80
2019-06-07T23:56:35.579Z,5.83
2019-06-07T23:59:05.808Z,5.53
